Time;durP1;ratioP1;P1;durP2;ratioP2;P2;SDS_P1;SDS_P2;PMS_P1;PMS_P2;Temp;Humidity;BMP_temperature;BMP_pressure;BME280_temperature;BME280_humidity;BME280_pressure;Samples;Min_cycle;Max_cycle;Signal;HPM_P1;HPM_P2
2023/10/17 00:00:58;;;;;;;;;;;8.90;77.20;;;;;;5059029;28;20376;-75
2023/10/17 00:03:25;;;;;;;;;;;8.90;77.10;;;;;;5063039;28;20002;-74
2023/10/17 00:05:54;;;;;;;;;;;8.90;77.10;;;;;;5064833;28;19994;-75
2023/10/17 00:08:21;;;;;;;;;;;8.90;77.30;;;;;;5063276;28;20055;-75
2023/10/17 00:10:48;;;;;;;;;;;8.90;77.20;;;;;;5057321;28;20447;-75
2023/10/17 00:13:25;;;;;;;;;;;8.80;77.20;;;;;;5063924;28;19983;-76
2023/10/17 00:15:53;;;;;;;;;;;8.80;77.30;;;;;;5064415;28;20639;-75
2023/10/17 00:18:24;;;;;;;;;;;8.70;77.10;;;;;;5066042;28;20034;-75
2023/10/17 00:20:53;;;;;;;;;;;8.70;77.20;;;;;;5070095;28;19971;-75
2023/10/17 00:23:22;;;;;;;;;;;8.70;77.20;;;;;;5065368;28;20502;-75
2023/10/17 00:25:49;;;;;;;;;;;8.70;77.30;;;;;;5058689;28;19991;-74
2023/10/17 00:28:20;;;;;;;;;;;8.70;77.40;;;;;;5062150;28;19975;-75
2023/10/17 00:30:48;;;;;;;;;;;8.70;77.30;;;;;;5057598;28;20400;-75
2023/10/17 00:33:20;;;;;;;;;;;8.60;77.30;;;;;;5062340;28;20817;-76
2023/10/17 00:35:47;;;;;;;;;;;8.60;77.30;;;;;;5063102;28;20614;-75
2023/10/17 00:38:15;;;;;;;;;;;8.60;77.40;;;;;;5060945;28;19975;-75
2023/10/17 00:40:47;;;;;;;;;;;8.60;77.40;;;;;;5063086;28;19982;-74
2023/10/17 00:43:14;;;;;;;;;;;8.60;77.40;;;;;;5060996;28;19984;-75
2023/10/17 00:45:41;;;;;;;;;;;8.50;77.30;;;;;;5055247;28;20006;-75
2023/10/17 00:48:08;;;;;;;;;;;8.50;77.30;;;;;;5056377;28;19991;-75
2023/10/17 00:50:37;;;;;;;;;;;8.50;77.30;;;;;;5063785;28;19981;-76
2023/10/17 00:53:05;;;;;;;;;;;8.50;77.40;;;;;;5057837;28;20342;-76
2023/10/17 00:55:34;;;;;;;;;;;8.50;77.40;;;;;;5062266;28;20078;-74
2023/10/17 00:58:02;;;;;;;;;;;8.50;77.50;;;;;;5060554;28;19975;-75
2023/10/17 01:00:35;;;;;;;;;;;8.40;77.40;;;;;;5064188;28;20003;-75
2023/10/17 01:03:08;;;;;;;;;;;8.40;77.50;;;;;;5062073;28;19982;-74
2023/10/17 01:05:46;;;;;;;;;;;8.30;77.40;;;;;;5060256;28;20034;-75
2023/10/17 01:08:13;;;;;;;;;;;8.40;77.60;;;;;;5059573;28;20589;-75
2023/10/17 01:10:40;;;;;;;;;;;8.30;77.50;;;;;;5060498;28;20784;-74
2023/10/17 01:13:07;;;;;;;;;;;8.30;77.50;;;;;;5062196;28;19987;-75
2023/10/17 01:15:35;;;;;;;;;;;8.20;77.50;;;;;;5060549;28;19999;-74
2023/10/17 01:18:04;;;;;;;;;;;8.30;77.70;;;;;;5058480;28;19976;-75
2023/10/17 01:20:31;;;;;;;;;;;8.30;77.60;;;;;;5061944;28;20550;-74
2023/10/17 01:23:00;;;;;;;;;;;8.20;77.50;;;;;;5062941;28;19972;-75
2023/10/17 01:25:29;;;;;;;;;;;8.20;77.60;;;;;;5064601;28;20010;-75
2023/10/17 01:27:57;;;;;;;;;;;8.20;77.60;;;;;;5063468;28;20083;-75
2023/10/17 01:30:28;;;;;;;;;;;8.10;77.60;;;;;;5058574;28;21728;-75
2023/10/17 01:32:56;;;;;;;;;;;8.10;77.60;;;;;;5061224;28;19983;-74
2023/10/17 01:35:23;;;;;;;;;;;8.10;77.60;;;;;;5062866;28;19998;-74
2023/10/17 01:37:52;;;;;;;;;;;8.10;77.60;;;;;;5062116;28;19982;-74
2023/10/17 01:40:22;;;;;;;;;;;8.10;77.70;;;;;;5058951;28;20033;-74
2023/10/17 01:42:51;;;;;;;;;;;8.10;77.70;;;;;;5062236;28;20442;-75
2023/10/17 01:45:20;;;;;;;;;;;8.00;77.60;;;;;;5059621;28;20038;-74
2023/10/17 01:47:47;;;;;;;;;;;8.10;77.70;;;;;;5062443;28;20170;-74
2023/10/17 01:50:14;;;;;;;;;;;8.00;77.70;;;;;;5061962;28;19979;-74
2023/10/17 01:52:42;;;;;;;;;;;8.00;77.60;;;;;;5062415;28;20321;-74
2023/10/17 01:55:10;;;;;;;;;;;8.00;77.80;;;;;;5058232;28;20389;-75
2023/10/17 01:57:40;;;;;;;;;;;8.00;77.80;;;;;;5060853;28;19997;-74
2023/10/17 02:00:17;;;;;;;;;;;8.00;77.90;;;;;;5060785;28;20078;-76
2023/10/17 02:02:44;;;;;;;;;;;7.90;77.70;;;;;;5063543;28;19978;-75
2023/10/17 02:05:12;;;;;;;;;;;7.90;77.70;;;;;;5060348;28;19991;-75
2023/10/17 02:07:39;;;;;;;;;;;7.90;77.70;;;;;;5058562;28;19975;-74
2023/10/17 02:10:07;;;;;;;;;;;7.80;77.70;;;;;;5053861;28;20014;-74
2023/10/17 02:12:34;;;;;;;;;;;7.80;77.70;;;;;;5062559;28;19986;-75
2023/10/17 02:15:02;;;;;;;;;;;7.80;77.80;;;;;;5061353;28;19995;-75
2023/10/17 02:17:30;;;;;;;;;;;7.80;77.80;;;;;;5059516;28;19987;-74
2023/10/17 02:19:59;;;;;;;;;;;7.80;77.80;;;;;;5064969;28;20409;-74
2023/10/17 02:22:26;;;;;;;;;;;7.80;77.90;;;;;;5059959;28;19988;-74
2023/10/17 02:24:55;;;;;;;;;;;7.80;77.80;;;;;;5058088;28;20656;-75
2023/10/17 02:27:22;;;;;;;;;;;7.70;77.70;;;;;;5058870;28;20401;-75
2023/10/17 02:29:49;;;;;;;;;;;7.70;77.90;;;;;;5059511;28;20070;-75
2023/10/17 02:32:18;;;;;;;;;;;7.70;77.90;;;;;;5062928;28;19999;-74
2023/10/17 02:34:47;;;;;;;;;;;7.70;78.00;;;;;;5062471;28;20045;-75
2023/10/17 02:37:17;;;;;;;;;;;7.60;77.90;;;;;;5066277;28;20018;-75
2023/10/17 02:39:44;;;;;;;;;;;7.60;78.00;;;;;;5064426;28;19975;-74
2023/10/17 02:42:11;;;;;;;;;;;7.60;78.00;;;;;;5066369;28;19975;-75
2023/10/17 02:44:43;;;;;;;;;;;7.60;78.10;;;;;;5068161;28;20006;-75
2023/10/17 02:47:14;;;;;;;;;;;7.60;78.20;;;;;;5064927;28;20432;-75
2023/10/17 02:49:43;;;;;;;;;;;7.50;78.10;;;;;;5065533;28;20014;-75
2023/10/17 02:52:11;;;;;;;;;;;7.60;78.20;;;;;;5064174;28;19980;-75
2023/10/17 02:54:55;;;;;;;;;;;7.60;78.10;;;;;;5064071;28;19995;-75
2023/10/17 02:57:23;;;;;;;;;;;7.50;78.20;;;;;;5065524;28;19975;-75
2023/10/17 02:59:51;;;;;;;;;;;7.50;78.20;;;;;;5065433;28;19975;-74
2023/10/17 03:02:20;;;;;;;;;;;7.50;78.30;;;;;;5062553;28;19999;-75
2023/10/17 03:04:46;;;;;;;;;;;7.50;78.30;;;;;;5067871;28;20000;-74
2023/10/17 03:07:15;;;;;;;;;;;7.40;78.30;;;;;;5060893;28;19980;-74
2023/10/17 03:09:44;;;;;;;;;;;7.40;78.30;;;;;;5060205;28;20040;-75
2023/10/17 03:12:19;;;;;;;;;;;7.40;78.30;;;;;;5064935;28;19988;-75
2023/10/17 03:17:53;;;;;;;;;;;7.40;78.50;;;;;;5057887;28;20037;-75
2023/10/17 03:20:19;;;;;;;;;;;7.40;78.60;;;;;;5064788;28;20444;-75
2023/10/17 03:22:50;;;;;;;;;;;7.40;78.60;;;;;;5060741;28;19982;-74
2023/10/17 03:25:18;;;;;;;;;;;7.40;78.70;;;;;;5065744;28;19999;-75
2023/10/17 03:27:49;;;;;;;;;;;7.40;78.70;;;;;;5064405;28;20105;-75
2023/10/17 03:30:15;;;;;;;;;;;7.40;78.80;;;;;;5059313;28;20056;-74
2023/10/17 03:32:53;;;;;;;;;;;7.30;78.80;;;;;;5063081;28;20476;-75
2023/10/17 03:35:21;;;;;;;;;;;7.30;78.80;;;;;;5066616;28;20048;-70
2023/10/17 03:37:49;;;;;;;;;;;7.30;78.90;;;;;;5065919;28;20062;-70
2023/10/17 03:40:18;;;;;;;;;;;7.30;78.90;;;;;;5070739;28;20440;-70
2023/10/17 03:42:46;;;;;;;;;;;7.30;78.90;;;;;;5065513;28;20058;-71
2023/10/17 03:45:16;;;;;;;;;;;7.30;78.90;;;;;;5068304;28;20093;-70
2023/10/17 03:47:44;;;;;;;;;;;7.30;79.10;;;;;;5065942;28;19983;-70
2023/10/17 03:50:12;;;;;;;;;;;7.30;79.10;;;;;;5066942;28;19978;-71
2023/10/17 03:52:41;;;;;;;;;;;7.30;79.10;;;;;;5063199;28;20121;-70
2023/10/17 03:55:10;;;;;;;;;;;7.30;79.20;;;;;;5064453;28;19995;-71
2023/10/17 03:57:39;;;;;;;;;;;7.20;79.10;;;;;;5060445;28;19984;-70
2023/10/17 04:00:25;;;;;;;;;;;7.20;79.10;;;;;;5063488;28;19983;-70
2023/10/17 04:02:51;;;;;;;;;;;7.20;79.20;;;;;;5058280;28;19976;-70
2023/10/17 04:05:18;;;;;;;;;;;7.20;79.20;;;;;;5065280;28;20006;-71
2023/10/17 04:07:51;;;;;;;;;;;7.20;79.30;;;;;;5064692;28;19986;-70
2023/10/17 04:10:21;;;;;;;;;;;7.20;79.40;;;;;;5065036;28;19987;-69
2023/10/17 04:13:06;;;;;;;;;;;7.20;79.40;;;;;;5064137;28;20452;-70
2023/10/17 04:15:33;;;;;;;;;;;7.20;79.50;;;;;;5064650;28;20084;-70
2023/10/17 04:18:00;;;;;;;;;;;7.20;79.50;;;;;;5048096;28;19979;-72
2023/10/17 04:20:26;;;;;;;;;;;7.20;79.60;;;;;;5047941;28;19979;-74
2023/10/17 04:22:54;;;;;;;;;;;7.10;79.60;;;;;;5047846;28;19982;-72
2023/10/17 04:25:34;;;;;;;;;;;7.10;79.60;;;;;;5047139;28;20667;-72
2023/10/17 04:28:01;;;;;;;;;;;7.10;79.70;;;;;;5046512;28;20062;-71
2023/10/17 04:30:30;;;;;;;;;;;7.10;79.70;;;;;;5047193;28;19995;-73
2023/10/17 04:33:08;;;;;;;;;;;7.10;79.70;;;;;;5048023;28;19980;-74
2023/10/17 04:35:35;;;;;;;;;;;7.20;79.80;;;;;;5047367;28;20592;-72
2023/10/17 04:38:16;;;;;;;;;;;7.10;79.80;;;;;;5047669;28;19987;-70
2023/10/17 04:40:51;;;;;;;;;;;7.10;79.70;;;;;;5047158;28;20297;-73
2023/10/17 04:46:02;;;;;;;;;;;7.10;79.80;;;;;;5047088;28;20098;-71
2023/10/17 04:48:35;;;;;;;;;;;7.10;79.80;;;;;;5045306;28;19983;-72
2023/10/17 04:51:13;;;;;;;;;;;7.00;79.90;;;;;;5047232;28;20021;-74
2023/10/17 04:53:47;;;;;;;;;;;7.10;80.00;;;;;;5046930;28;20387;-70
2023/10/17 04:56:16;;;;;;;;;;;7.00;79.80;;;;;;5046661;28;20103;-71
2023/10/17 04:58:48;;;;;;;;;;;7.00;80.70;;;;;;5047930;28;19979;-72
2023/10/17 05:01:36;;;;;;;;;;;6.90;82.40;;;;;;5046850;28;19995;-71
2023/10/17 05:04:09;;;;;;;;;;;6.90;82.60;;;;;;5044536;28;20086;-72
2023/10/17 06:18:26;;;;;;;;;;;7.00;80.50;;;;;;5070422;28;19981;-73
2023/10/17 06:21:17;;;;;;;;;;;7.00;80.50;;;;;;5068759;28;20070;-73
2023/10/17 06:32:15;;;;;;;;;;;6.90;80.60;;;;;;5022877;28;20058;-73
2023/10/17 06:34:44;;;;;;;;;;;6.90;80.50;;;;;;5058630;28;20043;-73
2023/10/17 06:37:19;;;;;;;;;;;7.00;80.70;;;;;;5071993;28;19986;-73
2023/10/17 06:39:46;;;;;;;;;;;7.00;80.70;;;;;;5072328;28;19985;-73
2023/10/17 06:42:15;;;;;;;;;;;7.00;80.80;;;;;;5073585;28;20070;-73
2023/10/17 06:44:53;;;;;;;;;;;6.90;80.60;;;;;;5072605;28;19987;-72
2023/10/17 06:47:23;;;;;;;;;;;7.00;80.60;;;;;;5072780;28;20571;-73
2023/10/17 06:53:01;;;;;;;;;;;7.00;80.80;;;;;;5030140;28;19990;-73
2023/10/17 06:55:29;;;;;;;;;;;6.90;80.60;;;;;;5067209;28;19995;-73
2023/10/17 06:58:04;;;;;;;;;;;7.00;80.60;;;;;;5058319;28;20022;-73
2023/10/17 07:00:42;;;;;;;;;;;7.00;80.80;;;;;;5071398;28;19994;-72
2023/10/17 07:03:09;;;;;;;;;;;7.00;80.70;;;;;;5065961;28;20011;-73
2023/10/17 07:05:37;;;;;;;;;;;7.00;80.70;;;;;;5068425;28;20111;-73
2023/10/17 07:08:05;;;;;;;;;;;6.90;80.60;;;;;;5073345;28;19983;-73
2023/10/17 07:10:38;;;;;;;;;;;7.00;80.70;;;;;;5069000;28;19993;-73
2023/10/17 07:13:23;;;;;;;;;;;6.90;80.70;;;;;;5061886;28;20062;-73
2023/10/17 07:15:52;;;;;;;;;;;7.00;80.70;;;;;;5067067;28;20091;-73
2023/10/17 07:21:17;;;;;;;;;;;7.00;80.70;;;;;;5032558;28;19986;-72
2023/10/17 07:23:44;;;;;;;;;;;7.00;80.80;;;;;;5073319;28;20585;-70
2023/10/17 07:26:15;;;;;;;;;;;7.00;80.90;;;;;;5068185;28;20007;-72
2023/10/17 07:28:43;;;;;;;;;;;7.00;80.90;;;;;;5065481;28;20429;-73
2023/10/17 07:31:11;;;;;;;;;;;7.00;80.80;;;;;;5064855;28;20102;-73
2023/10/17 07:33:38;;;;;;;;;;;7.00;80.70;;;;;;5069165;28;19990;-73
2023/10/17 07:36:06;;;;;;;;;;;7.00;80.50;;;;;;5069875;28;19991;-73
2023/10/17 07:38:33;;;;;;;;;;;7.00;80.70;;;;;;5065152;28;20078;-73
2023/10/17 07:41:09;;;;;;;;;;;7.00;80.80;;;;;;5066242;28;19986;-73
2023/10/17 07:43:36;;;;;;;;;;;7.00;80.70;;;;;;5066601;28;19975;-73
2023/10/17 07:46:07;;;;;;;;;;;7.00;80.50;;;;;;5070266;28;20010;-73
2023/10/17 07:48:34;;;;;;;;;;;7.10;80.60;;;;;;5067867;28;19976;-73
2023/10/17 07:51:01;;;;;;;;;;;7.00;80.40;;;;;;5069122;28;19986;-72
2023/10/17 07:53:32;;;;;;;;;;;7.10;80.60;;;;;;5077335;28;20592;-73
2023/10/17 07:56:04;;;;;;;;;;;7.10;80.80;;;;;;5066383;28;20092;-72
2023/10/17 07:58:39;;;;;;;;;;;7.10;80.90;;;;;;5068175;28;20447;-73
2023/10/17 08:01:07;;;;;;;;;;;7.10;80.80;;;;;;5066185;28;20498;-73
2023/10/17 08:03:34;;;;;;;;;;;7.10;80.90;;;;;;5069274;28;19971;-73
2023/10/17 08:06:05;;;;;;;;;;;7.10;80.80;;;;;;5065988;28;20013;-73
2023/10/17 08:08:34;;;;;;;;;;;7.10;80.70;;;;;;5072321;28;19983;-72
2023/10/17 08:11:05;;;;;;;;;;;7.10;80.90;;;;;;5062638;28;19979;-72
2023/10/17 08:13:32;;;;;;;;;;;7.20;80.80;;;;;;5067917;28;20653;-73
2023/10/17 08:16:05;;;;;;;;;;;7.10;80.70;;;;;;5065731;28;20011;-73
2023/10/17 08:18:39;;;;;;;;;;;7.20;80.80;;;;;;5066513;28;20076;-73
2023/10/17 08:23:50;;;;;;;;;;;7.20;80.60;;;;;;5069105;28;19993;-72
2023/10/17 08:26:20;;;;;;;;;;;7.20;80.80;;;;;;5068275;28;20042;-73
2023/10/17 08:28:51;;;;;;;;;;;7.20;80.70;;;;;;5064447;28;19982;-73
2023/10/17 08:31:23;;;;;;;;;;;7.20;80.80;;;;;;5066058;28;19995;-73
2023/10/17 08:33:57;;;;;;;;;;;7.30;80.90;;;;;;5068130;28;20011;-73
2023/10/17 08:36:27;;;;;;;;;;;7.20;80.70;;;;;;5067152;28;19972;-73
2023/10/17 08:38:55;;;;;;;;;;;7.30;80.70;;;;;;5068843;28;20014;-72
2023/10/17 08:41:23;;;;;;;;;;;7.20;80.60;;;;;;5065985;28;20023;-72
2023/10/17 08:43:50;;;;;;;;;;;7.30;80.60;;;;;;5063947;28;20058;-72
2023/10/17 08:46:17;;;;;;;;;;;7.30;80.60;;;;;;5065830;28;20002;-73
2023/10/17 08:48:43;;;;;;;;;;;7.30;80.50;;;;;;5067431;28;20062;-73
2023/10/17 08:51:12;;;;;;;;;;;7.30;80.50;;;;;;5071582;28;19979;-73
2023/10/17 08:53:39;;;;;;;;;;;7.40;80.60;;;;;;5067801;28;19987;-72
2023/10/17 08:56:08;;;;;;;;;;;7.40;80.70;;;;;;5069565;28;20007;-73
2023/10/17 08:58:37;;;;;;;;;;;7.40;80.60;;;;;;5065668;28;20015;-72
2023/10/17 09:01:11;;;;;;;;;;;7.40;80.60;;;;;;5067639;28;19995;-73
2023/10/17 09:03:41;;;;;;;;;;;7.40;80.60;;;;;;5071282;28;19981;-73
2023/10/17 09:06:28;;;;;;;;;;;7.40;80.60;;;;;;5064650;28;20017;-73
2023/10/17 09:08:57;;;;;;;;;;;7.50;80.60;;;;;;5065493;28;20001;-72
2023/10/17 09:11:31;;;;;;;;;;;7.50;80.60;;;;;;5066261;28;19975;-73
2023/10/17 09:14:17;;;;;;;;;;;7.50;80.50;;;;;;5064261;28;19976;-72
2023/10/17 09:16:50;;;;;;;;;;;7.50;80.50;;;;;;5063297;28;21446;-73
2023/10/17 09:19:20;;;;;;;;;;;7.50;80.50;;;;;;5066240;28;20018;-73
2023/10/17 09:21:47;;;;;;;;;;;7.50;80.20;;;;;;5069198;28;19979;-73
2023/10/17 09:24:35;;;;;;;;;;;7.60;80.30;;;;;;5072468;28;20004;-73
2023/10/17 09:27:09;;;;;;;;;;;7.60;80.20;;;;;;5062817;28;21366;-72
2023/10/17 09:29:45;;;;;;;;;;;7.60;80.40;;;;;;5061273;28;20006;-73
2023/10/17 09:32:11;;;;;;;;;;;7.60;80.20;;;;;;5063760;28;19994;-73
2023/10/17 09:34:40;;;;;;;;;;;7.60;80.10;;;;;;5065791;28;19994;-73
2023/10/17 09:37:12;;;;;;;;;;;7.70;80.30;;;;;;5068884;28;19986;-73
2023/10/17 09:39:47;;;;;;;;;;;7.70;80.20;;;;;;5066921;28;20061;-73
2023/10/17 09:42:14;;;;;;;;;;;7.70;80.40;;;;;;5065543;28;20055;-73
2023/10/17 09:44:41;;;;;;;;;;;7.70;80.40;;;;;;5066167;28;20003;-72
2023/10/17 09:47:10;;;;;;;;;;;7.70;80.30;;;;;;5065777;28;19999;-73
2023/10/17 09:49:42;;;;;;;;;;;7.70;80.30;;;;;;5067175;28;20546;-73
2023/10/17 09:52:09;;;;;;;;;;;7.80;80.30;;;;;;5068813;28;20710;-73
2023/10/17 09:54:36;;;;;;;;;;;7.70;80.40;;;;;;5061037;28;20037;-73
2023/10/17 09:57:04;;;;;;;;;;;7.80;80.20;;;;;;5067725;28;20516;-72
2023/10/17 09:59:35;;;;;;;;;;;7.80;80.30;;;;;;5062480;28;19976;-72
2023/10/17 10:02:02;;;;;;;;;;;7.80;80.10;;;;;;5063750;28;20075;-71
2023/10/17 10:04:31;;;;;;;;;;;7.80;80.00;;;;;;5064665;28;19995;-73
2023/10/17 10:07:18;;;;;;;;;;;7.90;80.10;;;;;;5065693;28;19991;-73
2023/10/17 10:09:46;;;;;;;;;;;7.90;79.90;;;;;;5063037;28;19984;-73
2023/10/17 10:12:14;;;;;;;;;;;7.90;79.80;;;;;;5063544;28;19983;-73
2023/10/17 10:14:42;;;;;;;;;;;8.00;79.80;;;;;;5070517;28;19991;-73
2023/10/17 10:17:09;;;;;;;;;;;7.90;79.80;;;;;;5064606;28;20523;-72
2023/10/17 10:19:50;;;;;;;;;;;8.00;79.90;;;;;;5067933;28;20703;-73
2023/10/17 10:22:18;;;;;;;;;;;8.00;79.90;;;;;;5058614;28;20073;-73
2023/10/17 10:24:46;;;;;;;;;;;8.10;79.90;;;;;;5068222;28;19991;-73
2023/10/17 10:27:18;;;;;;;;;;;8.10;79.90;;;;;;5063634;28;20031;-72
2023/10/17 10:29:45;;;;;;;;;;;8.10;79.80;;;;;;5067211;28;20073;-73
2023/10/17 10:32:31;;;;;;;;;;;8.10;79.90;;;;;;5062149;28;20559;-73
2023/10/17 10:34:57;;;;;;;;;;;8.10;79.70;;;;;;5062249;28;20030;-73
2023/10/17 10:37:25;;;;;;;;;;;8.20;79.50;;;;;;5068042;28;19983;-73
2023/10/17 10:40:17;;;;;;;;;;;8.20;79.80;;;;;;5065404;28;19975;-72
2023/10/17 10:42:45;;;;;;;;;;;8.20;79.80;;;;;;5052980;28;19979;-72
2023/10/17 10:45:24;;;;;;;;;;;8.30;79.90;;;;;;5061926;28;20002;-73
2023/10/17 10:47:57;;;;;;;;;;;8.30;79.90;;;;;;5065274;28;19991;-72
2023/10/17 10:50:25;;;;;;;;;;;8.30;79.90;;;;;;5066568;28;19979;-72
2023/10/17 10:52:53;;;;;;;;;;;8.30;79.80;;;;;;5073236;28;20021;-72
2023/10/17 10:55:20;;;;;;;;;;;8.40;79.60;;;;;;5070375;28;19999;-72
2023/10/17 10:57:47;;;;;;;;;;;8.40;79.80;;;;;;5067621;28;19983;-72
2023/10/17 11:00:15;;;;;;;;;;;8.40;79.70;;;;;;5068149;28;20040;-72
2023/10/17 11:02:43;;;;;;;;;;;8.40;79.60;;;;;;5066575;28;19975;-72
2023/10/17 11:05:12;;;;;;;;;;;8.50;79.60;;;;;;5068900;28;20006;-72
2023/10/17 11:07:39;;;;;;;;;;;8.50;79.50;;;;;;5066817;28;20031;-72
2023/10/17 11:10:10;;;;;;;;;;;8.50;79.70;;;;;;5070390;28;19983;-72
2023/10/17 11:12:37;;;;;;;;;;;8.50;79.50;;;;;;5067953;28;20624;-73
2023/10/17 11:15:10;;;;;;;;;;;8.50;79.40;;;;;;5068298;28;19992;-72
2023/10/17 11:17:38;;;;;;;;;;;8.60;79.90;;;;;;5063997;28;20037;-72
2023/10/17 11:20:14;;;;;;;;;;;8.60;80.10;;;;;;5066300;28;19975;-72
2023/10/17 11:22:41;;;;;;;;;;;8.60;79.90;;;;;;5065994;28;19975;-72
2023/10/17 11:25:13;;;;;;;;;;;8.60;80.00;;;;;;5069477;28;20007;-71
2023/10/17 11:27:48;;;;;;;;;;;8.60;79.80;;;;;;5066002;28;20402;-72
2023/10/17 11:30:18;;;;;;;;;;;8.70;79.70;;;;;;5069047;28;19979;-72
2023/10/17 11:32:45;;;;;;;;;;;8.70;79.40;;;;;;5067805;28;20070;-72
2023/10/17 11:35:19;;;;;;;;;;;8.70;79.50;;;;;;5066618;28;19995;-71
2023/10/17 11:37:47;;;;;;;;;;;8.70;79.50;;;;;;5070258;28;19976;-72
2023/10/17 11:40:30;;;;;;;;;;;8.80;79.80;;;;;;5066040;28;20040;-72
2023/10/17 11:42:58;;;;;;;;;;;8.80;79.60;;;;;;5063603;28;19983;-72
2023/10/17 11:45:33;;;;;;;;;;;8.80;79.70;;;;;;5068604;28;19995;-72
2023/10/17 11:48:06;;;;;;;;;;;8.90;79.90;;;;;;5067222;28;20099;-72
2023/10/17 11:50:34;;;;;;;;;;;8.90;80.00;;;;;;5070242;28;19985;-72
2023/10/17 11:53:09;;;;;;;;;;;8.90;79.90;;;;;;5066610;28;19990;-72
2023/10/17 11:55:41;;;;;;;;;;;8.90;80.30;;;;;;5063980;28;20726;-72
2023/10/17 11:58:09;;;;;;;;;;;9.00;80.30;;;;;;5061821;28;19998;-72
2023/10/17 12:00:35;;;;;;;;;;;9.10;80.20;;;;;;5066477;28;19995;-72
2023/10/17 12:03:02;;;;;;;;;;;9.00;80.00;;;;;;5066651;28;20322;-71
2023/10/17 12:05:31;;;;;;;;;;;9.00;79.70;;;;;;5067818;28;20003;-73
2023/10/17 12:07:59;;;;;;;;;;;9.10;80.00;;;;;;5067848;28;20459;-72
2023/10/17 12:10:26;;;;;;;;;;;9.10;79.70;;;;;;5063792;28;20552;-72
2023/10/17 12:12:58;;;;;;;;;;;9.10;79.60;;;;;;5069969;28;19975;-72
2023/10/17 12:15:26;;;;;;;;;;;9.20;79.80;;;;;;5068040;28;20560;-73
2023/10/17 12:17:53;;;;;;;;;;;9.20;80.20;;;;;;5068766;28;19983;-73
2023/10/17 12:20:25;;;;;;;;;;;9.20;80.20;;;;;;5069964;28;20014;-72
2023/10/17 12:22:54;;;;;;;;;;;9.30;79.80;;;;;;5060290;28;19975;-72
2023/10/17 12:25:23;;;;;;;;;;;9.30;79.50;;;;;;5064691;28;20535;-72
2023/10/17 12:27:52;;;;;;;;;;;9.30;79.40;;;;;;5065219;28;20014;-72
2023/10/17 12:30:26;;;;;;;;;;;9.30;79.50;;;;;;5066342;28;20507;-72
2023/10/17 12:32:55;;;;;;;;;;;9.30;79.20;;;;;;5068830;28;20103;-73
2023/10/17 12:35:22;;;;;;;;;;;9.40;81.00;;;;;;5068695;28;20078;-72
2023/10/17 12:37:51;;;;;;;;;;;9.40;79.50;;;;;;5071157;28;20425;-72
2023/10/17 12:40:21;;;;;;;;;;;9.40;79.90;;;;;;5069773;28;19990;-72
2023/10/17 12:42:48;;;;;;;;;;;9.50;79.40;;;;;;5067827;28;19975;-72
2023/10/17 12:45:15;;;;;;;;;;;9.50;79.70;;;;;;5065468;28;20368;-72
2023/10/17 12:47:43;;;;;;;;;;;9.60;80.00;;;;;;5067594;28;20089;-72
2023/10/17 12:50:12;;;;;;;;;;;9.50;79.50;;;;;;5068022;28;19986;-72
2023/10/17 12:52:39;;;;;;;;;;;9.60;80.00;;;;;;5066533;28;20464;-72
2023/10/17 12:55:07;;;;;;;;;;;9.60;79.80;;;;;;5065285;28;20467;-72
2023/10/17 12:57:36;;;;;;;;;;;9.60;79.50;;;;;;5065903;28;20413;-72
2023/10/17 13:00:09;;;;;;;;;;;9.70;79.40;;;;;;5066872;28;20425;-72
2023/10/17 13:02:35;;;;;;;;;;;9.70;79.40;;;;;;5067790;28;20086;-73
2023/10/17 13:05:03;;;;;;;;;;;9.70;79.20;;;;;;5067968;28;20411;-72
2023/10/17 13:07:30;;;;;;;;;;;9.70;79.00;;;;;;5066343;28;19996;-72
2023/10/17 13:09:57;;;;;;;;;;;9.80;79.10;;;;;;5067760;28;19980;-72
2023/10/17 13:12:24;;;;;;;;;;;9.80;79.20;;;;;;5064929;28;19979;-72
2023/10/17 13:14:50;;;;;;;;;;;9.80;79.10;;;;;;5067177;28;19995;-72
2023/10/17 13:17:18;;;;;;;;;;;9.80;79.20;;;;;;5064492;27;19996;-72
2023/10/17 13:19:48;;;;;;;;;;;9.90;79.10;;;;;;5068811;28;19983;-72
2023/10/17 13:22:17;;;;;;;;;;;9.90;79.00;;;;;;5066221;28;19983;-72
2023/10/17 13:24:45;;;;;;;;;;;9.90;79.10;;;;;;5067201;28;19991;-72
2023/10/17 13:27:11;;;;;;;;;;;9.90;79.10;;;;;;5067177;28;20006;-72
2023/10/17 13:29:38;;;;;;;;;;;10.00;79.00;;;;;;5066364;28;19979;-72
2023/10/17 13:32:07;;;;;;;;;;;10.00;78.90;;;;;;5064819;28;20002;-72
2023/10/17 13:34:34;;;;;;;;;;;10.00;79.00;;;;;;5065599;28;19992;-72
2023/10/17 13:37:04;;;;;;;;;;;10.00;78.70;;;;;;5066242;28;20436;-72
2023/10/17 13:39:31;;;;;;;;;;;10.00;78.90;;;;;;5065076;28;20618;-72
2023/10/17 13:41:58;;;;;;;;;;;10.10;78.80;;;;;;5067367;28;19983;-72
2023/10/17 13:44:25;;;;;;;;;;;10.10;78.50;;;;;;5066074;28;19991;-72
2023/10/17 13:46:52;;;;;;;;;;;10.10;78.50;;;;;;5065898;28;20049;-72
2023/10/17 13:49:19;;;;;;;;;;;10.20;78.60;;;;;;5070677;28;20019;-72
2023/10/17 13:51:47;;;;;;;;;;;10.20;78.50;;;;;;5068710;28;20049;-72
2023/10/17 13:54:14;;;;;;;;;;;10.20;78.70;;;;;;5070130;28;20022;-72
2023/10/17 13:56:41;;;;;;;;;;;10.20;78.50;;;;;;5064330;28;20062;-72
2023/10/17 13:59:10;;;;;;;;;;;10.30;78.70;;;;;;5064610;28;20066;-72
2023/10/17 14:01:42;;;;;;;;;;;10.30;78.90;;;;;;5061128;28;19999;-72
2023/10/17 14:04:10;;;;;;;;;;;10.30;78.60;;;;;;5064607;28;20022;-72
2023/10/17 14:06:39;;;;;;;;;;;10.30;78.50;;;;;;5065430;28;20379;-72
2023/10/17 14:09:14;;;;;;;;;;;10.30;78.40;;;;;;5064250;28;20103;-72
2023/10/17 14:11:41;;;;;;;;;;;10.40;79.30;;;;;;5066635;28;20004;-72
2023/10/17 14:14:10;;;;;;;;;;;10.40;78.80;;;;;;5065775;28;19979;-72
2023/10/17 14:16:40;;;;;;;;;;;10.40;78.40;;;;;;5066141;28;20088;-72
2023/10/17 14:19:13;;;;;;;;;;;10.40;78.60;;;;;;5064023;28;20097;-72
2023/10/17 14:21:41;;;;;;;;;;;10.50;78.70;;;;;;5066730;28;19979;-72
2023/10/17 14:24:10;;;;;;;;;;;10.60;78.50;;;;;;5064359;28;19979;-72
2023/10/17 14:26:36;;;;;;;;;;;10.60;78.00;;;;;;5067240;28;19976;-72
2023/10/17 14:29:03;;;;;;;;;;;10.60;78.00;;;;;;5069528;28;20013;-72
2023/10/17 14:31:30;;;;;;;;;;;10.70;78.00;;;;;;5070406;28;20582;-72
2023/10/17 14:33:57;;;;;;;;;;;10.70;78.10;;;;;;5068883;28;20007;-72
2023/10/17 14:36:24;;;;;;;;;;;10.70;77.70;;;;;;5067463;28;20002;-72
2023/10/17 14:38:50;;;;;;;;;;;10.70;78.40;;;;;;5068325;28;19979;-72
2023/10/17 14:41:17;;;;;;;;;;;10.70;78.70;;;;;;5071627;28;20002;-72
2023/10/17 14:43:46;;;;;;;;;;;10.70;78.30;;;;;;5073551;28;19979;-72
2023/10/17 14:46:13;;;;;;;;;;;10.70;77.90;;;;;;5071844;28;19995;-72
2023/10/17 14:48:42;;;;;;;;;;;10.70;77.90;;;;;;5069056;28;19991;-72
2023/10/17 14:51:11;;;;;;;;;;;10.70;77.80;;;;;;5069890;28;19980;-72
2023/10/17 14:53:42;;;;;;;;;;;10.70;78.10;;;;;;5066407;28;20392;-72
2023/10/17 14:56:12;;;;;;;;;;;10.70;77.90;;;;;;5068302;28;19987;-71
2023/10/17 14:58:39;;;;;;;;;;;10.80;78.20;;;;;;5065563;28;20825;-70
2023/10/17 15:01:06;;;;;;;;;;;11.00;78.90;;;;;;5066379;28;20010;-71
2023/10/17 15:03:33;;;;;;;;;;;11.00;78.50;;;;;;5067413;28;19990;-71
2023/10/17 15:06:01;;;;;;;;;;;11.20;78.40;;;;;;5067659;28;19992;-70
2023/10/17 15:08:28;;;;;;;;;;;11.30;78.00;;;;;;5068929;28;20002;-70
2023/10/17 15:10:55;;;;;;;;;;;11.40;77.80;;;;;;5067011;28;20101;-71
2023/10/17 15:13:22;;;;;;;;;;;11.40;77.50;;;;;;5067474;28;20069;-69
2023/10/17 15:15:48;;;;;;;;;;;11.50;77.20;;;;;;5067111;28;20526;-70
2023/10/17 15:18:15;;;;;;;;;;;11.60;77.10;;;;;;5060962;28;19979;-70
2023/10/17 15:20:42;;;;;;;;;;;11.60;76.70;;;;;;5063300;28;19986;-70
2023/10/17 15:23:10;;;;;;;;;;;11.70;76.90;;;;;;5064319;28;20062;-71
2023/10/17 15:25:37;;;;;;;;;;;11.70;76.70;;;;;;5064234;28;19991;-70
2023/10/17 15:28:04;;;;;;;;;;;11.70;76.50;;;;;;5065236;28;20388;-70
2023/10/17 15:30:32;;;;;;;;;;;11.80;76.40;;;;;;5064617;28;20007;-70
2023/10/17 15:32:59;;;;;;;;;;;11.80;76.20;;;;;;5063561;28;19975;-71
2023/10/17 15:35:28;;;;;;;;;;;11.80;76.00;;;;;;5065511;28;20002;-70
2023/10/17 15:37:54;;;;;;;;;;;11.80;75.80;;;;;;5064623;28;20605;-70
2023/10/17 15:40:24;;;;;;;;;;;11.90;76.00;;;;;;5065538;28;19979;-70
2023/10/17 15:42:51;;;;;;;;;;;11.90;75.80;;;;;;5065071;28;20618;-70
2023/10/17 15:45:19;;;;;;;;;;;11.90;75.80;;;;;;5063123;28;20052;-71
2023/10/17 15:47:47;;;;;;;;;;;11.90;75.90;;;;;;5065012;28;20489;-71
2023/10/17 15:50:17;;;;;;;;;;;12.00;76.20;;;;;;5064905;28;20302;-70
2023/10/17 15:52:43;;;;;;;;;;;11.90;76.00;;;;;;5064949;28;20480;-71
2023/10/17 15:55:10;;;;;;;;;;;11.90;76.00;;;;;;5064212;28;19995;-71
2023/10/17 15:57:39;;;;;;;;;;;11.90;76.10;;;;;;5065385;28;19979;-70
2023/10/17 16:00:10;;;;;;;;;;;11.90;76.00;;;;;;5062301;28;19983;-71
2023/10/17 16:02:37;;;;;;;;;;;12.00;76.20;;;;;;5065027;28;19980;-70
2023/10/17 16:05:04;;;;;;;;;;;12.00;76.20;;;;;;5063551;28;20003;-71
2023/10/17 16:07:31;;;;;;;;;;;11.90;76.00;;;;;;5063695;28;20077;-78
2023/10/17 16:09:58;;;;;;;;;;;11.90;76.30;;;;;;5060714;28;20100;-77
2023/10/17 16:12:26;;;;;;;;;;;11.90;76.30;;;;;;5058122;28;20010;-78
2023/10/17 16:14:54;;;;;;;;;;;12.00;76.50;;;;;;5060287;28;19994;-78
2023/10/17 16:17:23;;;;;;;;;;;11.90;76.50;;;;;;5058068;28;20544;-77